createdAt,value
2023-03-26T00:02:41.188Z,9.10
2023-03-26T00:06:44.107Z,9.00
2023-03-26T00:10:47.866Z,9.00
2023-03-26T00:14:52.815Z,9.00
2023-03-26T00:18:55.748Z,9.00
2023-03-26T00:23:01.485Z,9.00
2023-03-26T00:27:04.389Z,9.00
2023-03-26T00:31:09.948Z,9.00
2023-03-26T00:35:13.123Z,9.00
2023-03-26T00:39:17.775Z,9.00
2023-03-26T00:43:21.463Z,8.90
2023-03-26T00:47:25.789Z,8.90
2023-03-26T00:51:29.076Z,8.90
2023-03-26T00:55:34.473Z,8.80
2023-03-26T00:59:37.334Z,8.80
2023-03-26T01:03:47.706Z,8.80
2023-03-26T01:07:56.369Z,8.80
2023-03-26T01:12:00.109Z,8.80
2023-03-26T01:16:03.045Z,8.70
2023-03-26T01:20:15.003Z,8.70
2023-03-26T01:24:19.185Z,8.70
2023-03-26T01:28:22.394Z,8.60
2023-03-26T01:32:44.185Z,8.60
2023-03-26T01:40:56.899Z,8.50
2023-03-26T01:45:01.310Z,8.50
2023-03-26T01:49:04.814Z,8.60
2023-03-26T01:53:09.217Z,8.50
2023-03-26T01:57:18.095Z,8.50
2023-03-26T02:01:27.312Z,8.50
2023-03-26T02:05:33.198Z,8.40
2023-03-26T02:09:38.654Z,8.50
2023-03-26T02:13:44.122Z,8.40
2023-03-26T02:17:47.082Z,8.40
2023-03-26T02:21:51.404Z,8.40
2023-03-26T02:25:54.381Z,8.40
2023-03-26T02:29:58.690Z,8.40
2023-03-26T02:34:01.504Z,8.30
2023-03-26T02:38:04.451Z,8.30
2023-03-26T02:42:07.258Z,8.30
2023-03-26T02:46:11.402Z,8.30
2023-03-26T02:50:14.662Z,8.30
2023-03-26T02:54:18.316Z,8.30
2023-03-26T02:58:21.128Z,8.30
2023-03-26T03:02:25.783Z,8.30
2023-03-26T03:06:30.922Z,8.30
2023-03-26T03:10:33.845Z,8.20
2023-03-26T03:14:37.826Z,8.20
2023-03-26T03:18:41.992Z,8.20
2023-03-26T03:22:45.116Z,8.20
2023-03-26T03:26:47.978Z,8.10
2023-03-26T03:30:53.213Z,8.10
2023-03-26T03:34:57.481Z,8.10
2023-03-26T03:39:02.683Z,8.10
2023-03-26T03:43:05.772Z,8.00
2023-03-26T03:47:10.956Z,8.00
2023-03-26T03:51:15.085Z,7.90
2023-03-26T03:55:18.037Z,7.90
2023-03-26T03:59:20.855Z,7.90
2023-03-26T04:03:34.054Z,7.80
2023-03-26T04:07:38.716Z,7.80
2023-03-26T04:11:41.544Z,7.80
2023-03-26T04:15:44.759Z,7.80
2023-03-26T04:19:48.259Z,7.70
2023-03-26T04:23:54.282Z,7.80
2023-03-26T04:27:58.512Z,7.80
2023-03-26T04:32:07.102Z,7.80
2023-03-26T04:36:10.400Z,7.80
2023-03-26T04:40:15.647Z,7.80
2023-03-26T04:44:22.374Z,7.80
2023-03-26T04:48:26.373Z,7.80
2023-03-26T04:52:29.157Z,7.80
2023-03-26T04:56:37.585Z,7.80
2023-03-26T05:00:41.067Z,7.70
2023-03-26T05:04:44.003Z,7.80
2023-03-26T05:08:46.884Z,7.80
2023-03-26T05:12:51.057Z,7.80
2023-03-26T05:16:54.267Z,7.70
2023-03-26T05:20:57.799Z,7.70
2023-03-26T05:25:00.757Z,7.70
2023-03-26T05:29:05.346Z,7.80
2023-03-26T05:33:08.204Z,7.80
2023-03-26T05:37:11.111Z,7.80
2023-03-26T05:41:14.450Z,7.80
2023-03-26T05:45:18.629Z,7.80
2023-03-26T05:49:21.468Z,7.80
2023-03-26T05:53:24.920Z,7.90
2023-03-26T05:57:29.893Z,7.80
2023-03-26T06:01:34.188Z,7.90
2023-03-26T06:05:38.048Z,7.90
2023-03-26T06:09:41.161Z,7.90
2023-03-26T06:13:44.461Z,7.90
2023-03-26T06:17:48.849Z,7.90
2023-03-26T06:21:53.743Z,8.00
2023-03-26T06:25:56.853Z,8.00
2023-03-26T06:29:59.720Z,8.10
2023-03-26T06:34:03.888Z,8.10
2023-03-26T06:38:08.746Z,8.20
2023-03-26T06:42:11.590Z,8.20
2023-03-26T06:46:14.415Z,8.30
2023-03-26T06:50:18.738Z,8.30
2023-03-26T06:54:21.559Z,8.40
2023-03-26T06:58:24.424Z,8.40
2023-03-26T07:02:27.317Z,8.50
2023-03-26T07:06:31.497Z,8.50
2023-03-26T07:10:34.581Z,8.60
2023-03-26T07:14:38.769Z,8.60
2023-03-26T07:18:41.546Z,8.70
2023-03-26T07:22:46.069Z,8.70
2023-03-26T07:26:51.728Z,8.80
2023-03-26T07:30:59.801Z,8.90
2023-03-26T07:35:05.246Z,9.00
2023-03-26T07:39:15.687Z,9.10
2023-03-26T07:43:25.935Z,9.10
2023-03-26T07:47:29.949Z,9.20
2023-03-26T07:51:33.186Z,9.30
2023-03-26T07:55:42.352Z,9.30
2023-03-26T07:59:48.302Z,9.30
2023-03-26T08:04:24.144Z,9.40
2023-03-26T08:08:28.697Z,9.50
2023-03-26T08:12:39.702Z,9.60
2023-03-26T08:16:47.908Z,9.70
2023-03-26T08:20:53.811Z,9.70
2023-03-26T08:25:03.149Z,9.80
2023-03-26T08:29:15.513Z,9.80
2023-03-26T08:33:20.595Z,9.80
2023-03-26T08:37:23.398Z,9.90
2023-03-26T08:41:52.594Z,9.90
2023-03-26T08:46:08.826Z,9.90
2023-03-26T08:50:28.670Z,9.90
2023-03-26T08:54:46.493Z,9.90
2023-03-26T08:59:06.434Z,9.90
2023-03-26T09:03:24.419Z,10.00
2023-03-26T09:07:37.589Z,10.00
2023-03-26T09:12:01.353Z,10.00
2023-03-26T09:16:29.103Z,10.00
2023-03-26T09:20:53.933Z,10.10
2023-03-26T09:25:07.462Z,10.10
2023-03-26T09:29:34.021Z,10.20
2023-03-26T09:33:55.985Z,10.30
2023-03-26T09:37:59.805Z,10.40
2023-03-26T09:42:09.067Z,10.40
2023-03-26T09:46:19.825Z,10.60
2023-03-26T09:50:31.221Z,10.70
2023-03-26T09:54:55.159Z,10.80
2023-03-26T09:59:22.172Z,10.90
2023-03-26T10:03:30.495Z,11.00
2023-03-26T10:07:41.559Z,11.20
2023-03-26T10:15:58.613Z,11.70
2023-03-26T10:20:13.347Z,11.70
2023-03-26T10:24:33.373Z,11.80
2023-03-26T10:28:41.321Z,11.90
2023-03-26T10:32:47.893Z,11.90
2023-03-26T10:36:56.528Z,11.90
2023-03-26T10:41:04.770Z,11.90
2023-03-26T10:45:14.116Z,11.90
2023-03-26T10:49:35.075Z,12.00
2023-03-26T10:53:42.881Z,12.00
2023-03-26T10:57:53.049Z,12.00
2023-03-26T11:02:02.902Z,12.10
2023-03-26T11:06:12.658Z,12.20
2023-03-26T11:10:18.768Z,12.30
2023-03-26T11:14:33.746Z,12.50
2023-03-26T11:18:42.794Z,12.60
2023-03-26T11:22:51.802Z,12.70
2023-03-26T11:26:57.537Z,12.80
2023-03-26T11:31:20.848Z,12.80
2023-03-26T11:35:40.955Z,12.70
2023-03-26T11:39:49.288Z,12.60
2023-03-26T11:43:56.701Z,12.60
2023-03-26T11:48:04.098Z,12.50
2023-03-26T11:52:07.673Z,12.50
2023-03-26T11:56:15.152Z,12.50
2023-03-26T12:00:21.289Z,12.60
2023-03-26T12:04:28.198Z,12.70
2023-03-26T12:08:34.349Z,12.90
2023-03-26T12:12:39.198Z,13.10
2023-03-26T12:16:57.297Z,13.20
2023-03-26T12:21:03.547Z,13.30
2023-03-26T12:25:15.574Z,13.40
2023-03-26T12:29:20.846Z,13.40
2023-03-26T12:33:28.052Z,13.50
2023-03-26T12:37:36.687Z,13.50
2023-03-26T12:42:52.738Z,13.60
2023-03-26T12:47:54.629Z,13.60
2023-03-26T12:50:57.259Z,13.60
2023-03-26T12:55:12.018Z,13.60
2023-03-26T12:59:22.069Z,13.50
2023-03-26T13:03:38.912Z,13.40
2023-03-26T13:07:51.833Z,13.40
2023-03-26T13:12:00.639Z,13.30
2023-03-26T13:16:05.382Z,13.20
2023-03-26T13:20:12.647Z,13.10
2023-03-26T13:24:30.859Z,13.00
2023-03-26T13:28:37.819Z,12.90
2023-03-26T13:32:46.634Z,12.80
2023-03-26T13:36:56.271Z,12.60
2023-03-26T13:41:03.238Z,12.50
2023-03-26T13:45:11.533Z,12.40
2023-03-26T13:49:15.765Z,12.30
2023-03-26T13:53:20.632Z,12.20
2023-03-26T13:57:29.009Z,12.10
2023-03-26T14:01:35.412Z,12.10
2023-03-26T14:05:40.393Z,12.00
2023-03-26T14:09:45.684Z,11.90
2023-03-26T14:13:52.783Z,11.90
2023-03-26T14:17:59.312Z,11.80
2023-03-26T14:22:09.104Z,11.80
2023-03-26T14:26:17.470Z,11.70
2023-03-26T14:30:44.119Z,11.70
2023-03-26T14:34:56.135Z,11.70
2023-03-26T14:39:05.747Z,11.70
2023-03-26T14:43:23.510Z,11.70
2023-03-26T14:47:26.961Z,11.70
2023-03-26T14:51:43.061Z,11.60
2023-03-26T14:55:52.684Z,11.60
2023-03-26T15:00:15.806Z,11.60
2023-03-26T15:04:46.046Z,11.50
2023-03-26T15:09:03.944Z,11.50
2023-03-26T15:13:13.656Z,11.40
2023-03-26T15:17:38.885Z,11.30
2023-03-26T15:22:08.874Z,11.30
2023-03-26T15:26:41.486Z,11.20
2023-03-26T15:31:06.630Z,11.20
2023-03-26T15:35:17.831Z,11.10
2023-03-26T15:39:59.226Z,11.00
2023-03-26T15:44:24.276Z,11.10
2023-03-26T15:48:53.020Z,11.10
2023-03-26T15:52:59.600Z,11.20
2023-03-26T15:57:09.143Z,11.20
2023-03-26T16:01:19.237Z,11.10
2023-03-26T16:05:32.332Z,11.10
2023-03-26T16:09:51.574Z,11.00
2023-03-26T16:14:09.669Z,10.90
2023-03-26T16:18:32.163Z,10.80
2023-03-26T16:22:56.183Z,10.60
2023-03-26T16:27:07.875Z,10.50
2023-03-26T16:31:38.382Z,10.30
2023-03-26T16:35:48.910Z,10.20
2023-03-26T16:39:53.507Z,10.20
2023-03-26T16:44:11.617Z,10.10
2023-03-26T16:48:22.238Z,10.10
2023-03-26T16:52:36.552Z,10.00
2023-03-26T16:56:46.279Z,10.00
2023-03-26T17:00:52.557Z,9.90
2023-03-26T17:04:59.568Z,9.80
2023-03-26T17:09:07.528Z,9.80
2023-03-26T17:13:16.762Z,9.70
2023-03-26T17:17:28.058Z,9.60
2023-03-26T17:21:45.842Z,9.60
2023-03-26T17:25:55.920Z,9.50
2023-03-26T17:30:05.154Z,9.40
2023-03-26T17:34:35.520Z,9.30
2023-03-26T17:38:56.855Z,9.20
2023-03-26T17:43:03.462Z,9.10
2023-03-26T17:47:15.990Z,9.00
2023-03-26T17:51:25.008Z,9.00
2023-03-26T17:55:31.103Z,8.90
2023-03-26T17:59:35.302Z,8.70
2023-03-26T18:03:44.126Z,8.50
2023-03-26T18:08:06.353Z,8.40
2023-03-26T18:12:24.426Z,8.30
2023-03-26T18:16:32.352Z,8.20
2023-03-26T18:20:55.026Z,8.10
2023-03-26T18:24:59.922Z,8.00
2023-03-26T18:29:17.918Z,7.90
2023-03-26T18:33:20.812Z,7.80
2023-03-26T18:37:28.656Z,7.70
2023-03-26T18:41:32.813Z,7.60
2023-03-26T18:45:37.371Z,7.40
2023-03-26T18:49:42.753Z,7.30
2023-03-26T18:53:50.301Z,7.20
2023-03-26T18:57:53.158Z,7.10
2023-03-26T19:01:57.274Z,6.90
2023-03-26T19:06:01.496Z,6.80
2023-03-26T19:10:06.378Z,6.70
2023-03-26T19:18:16.965Z,6.30
2023-03-26T19:22:21.451Z,6.40
2023-03-26T19:26:25.903Z,6.30
2023-03-26T19:30:31.954Z,6.20
2023-03-26T19:34:35.905Z,6.10
2023-03-26T19:38:44.191Z,6.00
2023-03-26T19:42:50.771Z,5.90
2023-03-26T19:46:54.536Z,5.80
2023-03-26T19:51:01.872Z,5.70
2023-03-26T19:55:16.632Z,5.60
2023-03-26T19:59:20.787Z,5.60
2023-03-26T20:03:26.421Z,5.50
2023-03-26T20:07:35.704Z,5.40
2023-03-26T20:11:39.937Z,5.40
2023-03-26T20:15:46.857Z,5.30
2023-03-26T20:19:49.685Z,5.20
2023-03-26T20:23:53.627Z,5.20
2023-03-26T20:27:58.400Z,5.10
2023-03-26T20:32:06.380Z,5.00
2023-03-26T20:36:11.114Z,5.00
2023-03-26T20:40:15.730Z,4.90
2023-03-26T20:44:19.788Z,4.90
2023-03-26T20:48:26.551Z,4.80
2023-03-26T20:52:29.530Z,4.70
2023-03-26T20:56:32.462Z,4.70
2023-03-26T21:04:42.561Z,4.60
2023-03-26T21:08:45.834Z,4.50
2023-03-26T21:12:51.294Z,4.50
2023-03-26T21:16:54.643Z,4.40
2023-03-26T21:21:14.082Z,4.40
2023-03-26T21:25:27.340Z,4.40
2023-03-26T21:29:30.342Z,4.30
2023-03-26T21:33:33.288Z,4.30
2023-03-26T21:37:38.342Z,4.20
2023-03-26T21:41:44.178Z,4.20
2023-03-26T21:45:49.963Z,4.20
2023-03-26T21:49:54.760Z,4.10
2023-03-26T21:58:15.668Z,4.10
2023-03-26T22:02:22.775Z,4.10
2023-03-26T22:06:28.133Z,4.10
2023-03-26T22:10:31.041Z,4.10
2023-03-26T22:14:34.464Z,4.00
2023-03-26T22:18:38.671Z,4.00
2023-03-26T22:22:48.856Z,4.00
2023-03-26T22:26:51.702Z,4.00
2023-03-26T22:30:54.775Z,4.00
2023-03-26T22:34:59.076Z,3.90
2023-03-26T22:39:02.511Z,3.90
2023-03-26T22:43:05.615Z,3.80
2023-03-26T22:47:09.395Z,3.80
2023-03-26T22:51:14.099Z,3.70
2023-03-26T22:55:17.081Z,3.70
2023-03-26T22:59:32.285Z,3.70
2023-03-26T23:03:36.002Z,3.60
2023-03-26T23:07:40.271Z,3.60
2023-03-26T23:11:43.064Z,3.50
2023-03-26T23:15:47.344Z,3.50
2023-03-26T23:19:50.233Z,3.40
2023-03-26T23:23:54.367Z,3.40
2023-03-26T23:27:58.275Z,3.40
2023-03-26T23:32:01.302Z,3.30
2023-03-26T23:36:09.080Z,3.30
2023-03-26T23:40:14.173Z,3.20
2023-03-26T23:44:17.177Z,3.20
2023-03-26T23:52:27.273Z,3.10
2023-03-26T23:56:31.996Z,3.00
